Weather reports worldwide

Advertisment
Chateau Chinon, France (7270): temperature & dewpoint: 17.01.2019 03:00:00 - 23.01.2019 03:00:00 (CET)Chateau Chinon, France (7270): wind speed & gusts: 17.01.2019 03:00:00 - 23.01.2019 03:00:00 (CET)Chateau Chinon, France (7270): wind direction: 17.01.2019 03:00:00 - 23.01.2019 03:00:00 (CET)Chateau Chinon, France (7270): precipitation: 17.01.2019 03:00:00 - 23.01.2019 03:00:00 (CET)
Date & Time tt [°C] td [°C] ff [km/h] ff [kn] fx [km/h] fx [kn] dd rr [mm]
23.01.2019 03:00:00 - - - - - - - -
23.01.2019 02:00:00 -2,1 -2,1 11 6 29 16 SSW 0,0
23.01.2019 01:00:00 -2,2 -2,2 5 3 22 12 SW -
23.01.2019 00:00:00 -2,1 -2,2 4 2 16 9 WSW 0,0
22.01.2019 23:00:00 -1,9 -2,0 0 0 9 5 N 0,0
22.01.2019 22:00:00 -2,1 -2,2 2 1 11 6 NW 0,0
22.01.2019 21:00:00 -2,1 -2,2 4 2 21 11 W 0,2
22.01.2019 20:00:00 -1,9 -2,0 5 3 29 16 W 1,0
22.01.2019 19:00:00 -1,6 -1,7 8 4 35 19 WSW -
22.01.2019 18:00:00 -1,4 -1,5 9 5 34 18 WSW 0,2
22.01.2019 17:00:00 -1,2 -1,5 8 4 28 15 WSW 0,8
22.01.2019 16:00:00 -1,4 -1,8 11 6 28 15 SW 1,0
22.01.2019 15:00:00 -1,5 -2,5 5 3 18 10 SSW 0,2
22.01.2019 14:00:00 -1,0 -3,7 9 5 22 12 SE 0,0
22.01.2019 13:00:00 -1,0 -4,0 8 4 21 11 SW -
22.01.2019 12:00:00 -1,9 -4,6 8 4 26 14 SSW 0,0
22.01.2019 11:00:00 -3,1 -3,4 11 6 26 14 SW 0,0
22.01.2019 10:00:00 -3,6 -3,9 8 4 24 13 SW 0,0
22.01.2019 09:00:00 -3,5 -3,8 5 3 22 12 WSW 0,0
22.01.2019 08:00:00 -3,9 -4,2 8 4 28 15 SW 0,0
22.01.2019 07:00:00 -4,3 -4,6 5 3 21 11 WSW -
22.01.2019 06:00:00 -4,7 -5,1 5 3 24 13 WSW 0,0
22.01.2019 05:00:00 -5,3 -5,7 8 4 22 12 SW 0,0
22.01.2019 04:00:00 -5,4 -5,8 8 4 24 13 SW 0,0
22.01.2019 03:00:00 -5,0 -5,3 4 2 16 9 SW 0,0
22.01.2019 02:00:00 -4,8 -5,1 4 2 13 7 S 0,0
22.01.2019 01:00:00 -4,8 -5,1 5 3 16 9 S -
22.01.2019 00:00:00 -4,3 -4,4 2 1 15 8 W 0,0
21.01.2019 23:00:00 -4,0 -4,1 2 1 9 5 W 0,0
21.01.2019 22:00:00 -4,0 -4,0 2 1 9 5 S 0,0
21.01.2019 21:00:00 -3,9 -3,9 4 2 9 5 SSW 0,0
21.01.2019 20:00:00 -3,4 -3,5 0 0 9 5 N 0,0
21.01.2019 19:00:00 -3,3 -3,4 4 2 8 4 W -
21.01.2019 18:00:00 -2,8 -2,9 2 1 5 3 WNW 0,0
21.01.2019 17:00:00 -2,6 -2,7 2 1 8 4 W 0,0
21.01.2019 16:00:00 -2,3 -2,6 4 2 11 6 NW 0,0
21.01.2019 15:00:00 -2,1 -2,5 4 2 11 6 N 0,0
21.01.2019 14:00:00 -1,3 -1,7 4 2 13 7 W 0,0
21.01.2019 13:00:00 -0,8 -1,2 4 2 11 6 W -
21.01.2019 12:00:00 -0,8 -0,9 4 2 11 6 NW 0,0
21.01.2019 11:00:00 -1,2 -1,2 4 2 13 7 N 0,0
21.01.2019 10:00:00 -1,1 -1,1 2 1 11 6 ENE 0,0
21.01.2019 09:00:00 -1,2 -1,2 5 3 16 9 ENE 0,0
21.01.2019 08:00:00 -0,9 -0,9 5 3 16 9 NNE 0,0
21.01.2019 07:00:00 -0,5 -0,5 5 3 24 13 N -
21.01.2019 06:00:00 -0,4 -0,4 5 3 18 10 NNW 0,0
21.01.2019 05:00:00 0,0 0,0 5 3 21 11 N 0,0
21.01.2019 04:00:00 0,2 0,2 5 3 22 12 NNE 0,0
21.01.2019 03:00:00 0,2 0,2 4 2 15 8 NE 0,0
21.01.2019 02:00:00 0,2 0,2 5 3 21 11 NE 0,0
21.01.2019 01:00:00 0,3 0,3 8 4 18 10 NE -
21.01.2019 00:00:00 0,5 0,5 8 4 18 10 ENE 0,0
20.01.2019 23:00:00 0,5 0,5 8 4 26 14 NE 0,0
20.01.2019 22:00:00 0,7 0,7 8 4 18 10 ENE 0,0
20.01.2019 21:00:00 1,0 0,9 4 2 18 10 ENE 0,0
20.01.2019 20:00:00 1,2 1,1 2 1 9 5 NE 0,0
20.01.2019 19:00:00 1,4 1,3 4 2 13 7 NE -
20.01.2019 18:00:00 1,6 1,5 4 2 11 6 NE 0,0
20.01.2019 17:00:00 1,7 1,6 4 2 9 5 NE 0,4
20.01.2019 16:00:00 2,1 2,0 0 0 9 5 N 0,4
20.01.2019 15:00:00 2,4 2,3 2 1 9 5 WNW 0,2
20.01.2019 14:00:00 2,6 2,5 2 1 9 5 W 0,2
20.01.2019 13:00:00 2,5 2,4 2 1 11 6 W -
20.01.2019 12:00:00 1,9 1,8 4 2 15 8 SW 0,0
20.01.2019 11:00:00 1,6 1,5 5 3 16 9 SW 0,0
20.01.2019 10:00:00 1,1 1,0 4 2 26 14 WSW 0,2
20.01.2019 09:00:00 1,0 0,9 11 6 24 13 SSW 0,2
20.01.2019 08:00:00 1,0 0,9 13 7 28 15 SW 1,0
20.01.2019 07:00:00 1,3 1,0 9 5 22 12 SSW -
20.01.2019 06:00:00 0,6 0,2 11 6 26 14 SSW 3,0
20.01.2019 05:00:00 2,0 0,2 9 5 29 16 SW 0,0
20.01.2019 04:00:00 2,4 0,3 4 2 21 11 S 0,0
20.01.2019 03:00:00 2,2 0,6 9 5 24 13 SW 0,2
20.01.2019 02:00:00 2,2 -0,7 8 4 22 12 SSW 0,0
20.01.2019 01:00:00 2,0 -0,4 5 3 21 11 S -
20.01.2019 00:00:00 2,0 0,4 5 3 24 13 S 0,0
19.01.2019 23:00:00 2,3 0,0 11 6 24 13 SSW 0,0
19.01.2019 22:00:00 2,2 0,4 8 4 29 16 SSW 0,0
19.01.2019 21:00:00 2,3 0,4 8 4 26 14 S 0,0
19.01.2019 20:00:00 1,9 0,4 5 3 24 13 S 0,0
19.01.2019 19:00:00 1,1 -0,8 9 5 28 15 SSE -
19.01.2019 18:00:00 1,5 -0,6 4 2 13 7 S 0,0
19.01.2019 17:00:00 1,0 -0,5 8 4 18 10 SE 0,0
19.01.2019 16:00:00 1,1 -1,3 5 3 22 12 S 0,2
19.01.2019 15:00:00 2,6 -2,7 5 3 24 13 SW 0,0
19.01.2019 14:00:00 2,8 -3,3 9 5 22 12 SSW 0,0
19.01.2019 13:00:00 2,8 -3,8 8 4 22 12 SSE -
19.01.2019 12:00:00 2,8 -5,8 8 4 28 15 SSW 0,0
19.01.2019 11:00:00 0,7 -5,8 5 3 18 10 SSW 0,0
19.01.2019 10:00:00 0,3 -5,3 5 3 22 12 SE 0,0
19.01.2019 09:00:00 -2,7 -5,3 9 5 21 11 SE 0,0
19.01.2019 08:00:00 -3,7 -6,6 9 5 16 9 SE 0,0
19.01.2019 07:00:00 -4,3 -6,1 8 4 18 10 SE -
19.01.2019 06:00:00 -3,8 -6,0 8 4 22 12 SE 0,0
19.01.2019 05:00:00 -3,8 -6,0 8 4 18 10 SE 0,0
19.01.2019 04:00:00 -3,4 -6,2 8 4 16 9 SE 0,0
19.01.2019 03:00:00 -3,6 -5,8 8 4 16 9 ESE 0,0
19.01.2019 02:00:00 -3,4 -4,8 8 4 16 9 ESE 0,0
19.01.2019 01:00:00 -3,8 -4,6 8 4 15 8 ESE -
19.01.2019 00:00:00 -3,8 -4,5 5 3 13 7 ESE 0,0
18.01.2019 23:00:00 -3,7 -4,2 8 4 18 10 ESE 0,0
18.01.2019 22:00:00 -3,6 -4,0 8 4 22 12 ESE 0,0
18.01.2019 21:00:00 -3,4 -3,9 5 3 15 8 E 0,0
18.01.2019 20:00:00 -3,0 -3,8 4 2 8 4 E 0,0
18.01.2019 19:00:00 -2,8 -4,1 4 2 9 5 ESE -
18.01.2019 18:00:00 -1,8 -4,1 2 1 9 5 SSE 0,0
18.01.2019 17:00:00 -0,7 -4,8 2 1 9 5 ESE 0,0
18.01.2019 16:00:00 2,7 -3,6 2 1 11 6 ESE 0,0
18.01.2019 15:00:00 1,5 -2,3 2 1 13 7 NNW 0,0
18.01.2019 14:00:00 1,5 -3,2 4 2 11 6 ESE 0,0
18.01.2019 13:00:00 1,2 -2,6 4 2 15 8 E -
18.01.2019 12:00:00 1,3 -1,9 4 2 16 9 E 0,0
18.01.2019 11:00:00 -0,7 -2,9 5 3 11 6 E 0,0
18.01.2019 10:00:00 -1,4 -3,6 2 1 8 4 SE 0,0
18.01.2019 09:00:00 -3,5 -4,0 4 2 8 4 E 0,0
18.01.2019 08:00:00 -3,9 -4,6 2 1 8 4 E 0,0
18.01.2019 07:00:00 -3,4 -3,9 4 2 11 6 E -
18.01.2019 06:00:00 -3,3 -3,8 5 3 9 5 ESE 0,0
18.01.2019 05:00:00 -3,4 -3,8 8 4 13 7 E 0,0
18.01.2019 04:00:00 -3,2 -3,6 5 3 15 8 E 0,0
18.01.2019 03:00:00 -2,8 -3,3 5 3 18 10 ENE 0,0
18.01.2019 02:00:00 -2,2 -2,9 8 4 21 11 ENE 0,0
18.01.2019 01:00:00 -1,5 -2,3 5 3 18 10 ENE -
18.01.2019 00:00:00 -0,9 -1,5 4 2 18 10 N 0,0
17.01.2019 23:00:00 0,0 -0,4 4 2 22 12 NE 0,0
17.01.2019 22:00:00 0,7 -0,3 11 6 28 15 NNW 0,0
17.01.2019 21:00:00 1,4 0,1 4 2 22 12 WNW 0,0
17.01.2019 20:00:00 1,2 -0,3 4 2 22 12 WNW 0,0
17.01.2019 19:00:00 1,2 -0,4 4 2 18 10 NW -
17.01.2019 18:00:00 1,5 -0,1 2 1 13 7 NW 0,0
17.01.2019 17:00:00 2,4 0,5 4 2 18 10 W 0,0
17.01.2019 16:00:00 3,6 0,5 4 2 24 13 WNW 0,0
17.01.2019 15:00:00 3,3 0,7 4 2 24 13 WNW 0,0
17.01.2019 14:00:00 3,4 2,7 5 3 24 13 NW 0,0
17.01.2019 13:00:00 3,4 3,3 4 2 26 14 NW -
17.01.2019 12:00:00 2,9 2,8 5 3 22 12 NNW 0,0
17.01.2019 11:00:00 2,8 2,7 5 3 34 18 WNW 0,0
17.01.2019 10:00:00 2,9 2,8 5 3 31 17 WNW 0,0
17.01.2019 09:00:00 3,1 3,0 8 4 29 16 NW 0,0
17.01.2019 08:00:00 3,9 3,8 8 4 26 14 NNW 0,0
17.01.2019 07:00:00 3,9 3,6 8 4 28 15 WNW -
17.01.2019 06:00:00 4,1 3,7 9 5 55 30 W 2,0
17.01.2019 05:00:00 4,5 3,6 15 8 57 31 WSW 0,2
17.01.2019 04:00:00 4,3 3,3 18 10 59 32 WSW 0,6
17.01.2019 03:00:00 4,3 3,1 24 13 68 37 SW 0,6

tt = temperature
td = dewpoint
ff = wind speed
fx = gusts
dd = wind direction
rr = precipitation

Next stations